sensor_id;sensor_type;location;lat;lon;timestamp;temperature;humidity
19862;DHT22;10093;48.148;8.542;2023-05-19T00:01:56;10.00;99.90
19862;DHT22;10093;48.148;8.542;2023-05-19T00:04:25;10.00;99.90
19862;DHT22;10093;48.148;8.542;2023-05-19T00:06:53;9.90;99.90
19862;DHT22;10093;48.148;8.542;2023-05-19T00:09:19;10.00;99.90
19862;DHT22;10093;48.148;8.542;2023-05-19T00:11:45;9.90;99.90
19862;DHT22;10093;48.148;8.542;2023-05-19T00:14:11;9.90;99.90
19862;DHT22;10093;48.148;8.542;2023-05-19T00:16:37;9.90;99.90
19862;DHT22;10093;48.148;8.542;2023-05-19T00:19:04;9.90;99.90
19862;DHT22;10093;48.148;8.542;2023-05-19T00:21:30;9.80;99.90
19862;DHT22;10093;48.148;8.542;2023-05-19T00:23:56;9.70;99.90
19862;DHT22;10093;48.148;8.542;2023-05-19T00:26:23;9.80;99.90
19862;DHT22;10093;48.148;8.542;2023-05-19T00:28:49;9.60;99.90
19862;DHT22;10093;48.148;8.542;2023-05-19T00:31:15;9.60;99.90
19862;DHT22;10093;48.148;8.542;2023-05-19T00:33:41;9.60;99.90
19862;DHT22;10093;48.148;8.542;2023-05-19T00:36:07;9.50;99.90
19862;DHT22;10093;48.148;8.542;2023-05-19T00:38:34;9.60;99.90
19862;DHT22;10093;48.148;8.542;2023-05-19T00:41:01;9.50;99.90
19862;DHT22;10093;48.148;8.542;2023-05-19T00:43:27;9.50;99.90
19862;DHT22;10093;48.148;8.542;2023-05-19T00:45:58;9.40;99.90
19862;DHT22;10093;48.148;8.542;2023-05-19T00:48:25;9.30;99.90
19862;DHT22;10093;48.148;8.542;2023-05-19T00:50:52;9.20;99.90
19862;DHT22;10093;48.148;8.542;2023-05-19T00:53:19;9.10;99.90
19862;DHT22;10093;48.148;8.542;2023-05-19T00:55:45;9.10;99.90
19862;DHT22;10093;48.148;8.542;2023-05-19T00:58:11;9.00;99.90
19862;DHT22;10093;48.148;8.542;2023-05-19T01:00:38;9.00;99.90
19862;DHT22;10093;48.148;8.542;2023-05-19T01:03:05;9.10;99.90
19862;DHT22;10093;48.148;8.542;2023-05-19T01:05:41;9.00;99.90
19862;DHT22;10093;48.148;8.542;2023-05-19T01:08:09;9.10;99.90
19862;DHT22;10093;48.148;8.542;2023-05-19T01:10:35;9.00;99.90
19862;DHT22;10093;48.148;8.542;2023-05-19T01:13:02;9.10;99.90
19862;DHT22;10093;48.148;8.542;2023-05-19T01:15:28;9.10;99.90
19862;DHT22;10093;48.148;8.542;2023-05-19T01:18:04;9.00;99.90
19862;DHT22;10093;48.148;8.542;2023-05-19T01:20:38;9.00;99.90
19862;DHT22;10093;48.148;8.542;2023-05-19T01:23:37;8.90;99.90
19862;DHT22;10093;48.148;8.542;2023-05-19T01:29:35;8.80;99.90
19862;DHT22;10093;48.148;8.542;2023-05-19T01:32:05;8.80;99.90
19862;DHT22;10093;48.148;8.542;2023-05-19T01:34:33;8.70;99.90
19862;DHT22;10093;48.148;8.542;2023-05-19T01:37:04;8.70;99.90
19862;DHT22;10093;48.148;8.542;2023-05-19T01:39:30;8.60;99.90
19862;DHT22;10093;48.148;8.542;2023-05-19T01:41:57;8.60;99.90
19862;DHT22;10093;48.148;8.542;2023-05-19T01:44:23;8.50;99.90
19862;DHT22;10093;48.148;8.542;2023-05-19T01:46:48;8.50;99.90
19862;DHT22;10093;48.148;8.542;2023-05-19T01:49:14;8.50;99.90
19862;DHT22;10093;48.148;8.542;2023-05-19T01:51:40;8.40;99.90
19862;DHT22;10093;48.148;8.542;2023-05-19T01:54:05;8.30;99.90
19862;DHT22;10093;48.148;8.542;2023-05-19T01:56:48;8.30;99.90
19862;DHT22;10093;48.148;8.542;2023-05-19T02:08:18;8.00;99.90
19862;DHT22;10093;48.148;8.542;2023-05-19T02:10:50;8.10;99.90
19862;DHT22;10093;48.148;8.542;2023-05-19T02:13:19;8.10;99.90
19862;DHT22;10093;48.148;8.542;2023-05-19T02:15:47;8.10;99.90
19862;DHT22;10093;48.148;8.542;2023-05-19T02:18:13;8.00;99.90
19862;DHT22;10093;48.148;8.542;2023-05-19T02:20:42;8.00;99.90
19862;DHT22;10093;48.148;8.542;2023-05-19T02:23:08;7.90;99.90
19862;DHT22;10093;48.148;8.542;2023-05-19T02:25:33;7.80;99.90
19862;DHT22;10093;48.148;8.542;2023-05-19T02:27:59;7.60;99.90
19862;DHT22;10093;48.148;8.542;2023-05-19T02:30:25;7.50;99.90
19862;DHT22;10093;48.148;8.542;2023-05-19T02:32:50;7.40;99.90
19862;DHT22;10093;48.148;8.542;2023-05-19T02:35:19;7.40;99.90
19862;DHT22;10093;48.148;8.542;2023-05-19T02:37:44;7.40;99.90
19862;DHT22;10093;48.148;8.542;2023-05-19T02:40:10;7.40;99.90
19862;DHT22;10093;48.148;8.542;2023-05-19T02:42:36;7.40;99.90
19862;DHT22;10093;48.148;8.542;2023-05-19T02:45:02;7.50;99.90
19862;DHT22;10093;48.148;8.542;2023-05-19T02:47:27;7.50;99.90
19862;DHT22;10093;48.148;8.542;2023-05-19T02:49:53;7.50;99.90
19862;DHT22;10093;48.148;8.542;2023-05-19T02:52:18;7.50;99.90
19862;DHT22;10093;48.148;8.542;2023-05-19T02:54:44;7.60;99.90
19862;DHT22;10093;48.148;8.542;2023-05-19T02:57:10;7.70;99.90
19862;DHT22;10093;48.148;8.542;2023-05-19T02:59:36;7.70;99.90
19862;DHT22;10093;48.148;8.542;2023-05-19T03:02:02;7.90;99.90
19862;DHT22;10093;48.148;8.542;2023-05-19T03:04:28;8.00;99.90
19862;DHT22;10093;48.148;8.542;2023-05-19T03:06:54;8.00;99.90
19862;DHT22;10093;48.148;8.542;2023-05-19T03:09:20;8.10;99.90
19862;DHT22;10093;48.148;8.542;2023-05-19T03:11:45;8.20;99.90
19862;DHT22;10093;48.148;8.542;2023-05-19T03:14:11;8.30;99.90
19862;DHT22;10093;48.148;8.542;2023-05-19T03:16:38;8.50;99.90
19862;DHT22;10093;48.148;8.542;2023-05-19T03:19:06;8.50;99.90
19862;DHT22;10093;48.148;8.542;2023-05-19T03:21:33;8.40;99.90
19862;DHT22;10093;48.148;8.542;2023-05-19T03:23:59;8.50;99.90
19862;DHT22;10093;48.148;8.542;2023-05-19T03:26:25;8.40;99.90
19862;DHT22;10093;48.148;8.542;2023-05-19T03:28:51;8.40;99.90
19862;DHT22;10093;48.148;8.542;2023-05-19T03:31:17;8.50;99.90
19862;DHT22;10093;48.148;8.542;2023-05-19T03:33:43;8.50;99.90
19862;DHT22;10093;48.148;8.542;2023-05-19T03:36:08;8.50;99.90
19862;DHT22;10093;48.148;8.542;2023-05-19T03:38:34;8.50;99.90
19862;DHT22;10093;48.148;8.542;2023-05-19T03:41:00;8.40;99.90
19862;DHT22;10093;48.148;8.542;2023-05-19T03:43:25;8.40;99.90
19862;DHT22;10093;48.148;8.542;2023-05-19T03:45:51;8.50;99.90
19862;DHT22;10093;48.148;8.542;2023-05-19T03:48:17;8.50;99.90
19862;DHT22;10093;48.148;8.542;2023-05-19T03:50:43;8.40;99.90
19862;DHT22;10093;48.148;8.542;2023-05-19T03:53:09;8.40;99.90
19862;DHT22;10093;48.148;8.542;2023-05-19T03:55:35;8.30;99.90
19862;DHT22;10093;48.148;8.542;2023-05-19T03:58:02;8.20;99.90
19862;DHT22;10093;48.148;8.542;2023-05-19T04:00:27;8.20;99.90
19862;DHT22;10093;48.148;8.542;2023-05-19T04:02:53;8.30;99.90
19862;DHT22;10093;48.148;8.542;2023-05-19T04:05:19;8.30;99.90
19862;DHT22;10093;48.148;8.542;2023-05-19T04:07:44;8.20;99.90
19862;DHT22;10093;48.148;8.542;2023-05-19T04:10:11;8.20;99.90
19862;DHT22;10093;48.148;8.542;2023-05-19T04:12:37;8.20;99.90
19862;DHT22;10093;48.148;8.542;2023-05-19T04:15:03;8.20;99.90
19862;DHT22;10093;48.148;8.542;2023-05-19T04:17:30;8.20;99.90
19862;DHT22;10093;48.148;8.542;2023-05-19T04:19:56;8.00;99.90
19862;DHT22;10093;48.148;8.542;2023-05-19T04:22:21;8.20;99.90
19862;DHT22;10093;48.148;8.542;2023-05-19T04:24:47;8.10;99.90
19862;DHT22;10093;48.148;8.542;2023-05-19T04:27:13;8.30;99.90
19862;DHT22;10093;48.148;8.542;2023-05-19T04:29:40;8.50;99.90
19862;DHT22;10093;48.148;8.542;2023-05-19T04:32:06;8.60;99.90
19862;DHT22;10093;48.148;8.542;2023-05-19T04:34:35;8.60;99.90
19862;DHT22;10093;48.148;8.542;2023-05-19T04:37:07;8.70;99.90
19862;DHT22;10093;48.148;8.542;2023-05-19T04:39:34;8.80;99.90
19862;DHT22;10093;48.148;8.542;2023-05-19T04:42:03;9.00;99.90
19862;DHT22;10093;48.148;8.542;2023-05-19T04:44:28;9.00;99.90
19862;DHT22;10093;48.148;8.542;2023-05-19T04:46:55;9.00;99.90
19862;DHT22;10093;48.148;8.542;2023-05-19T04:49:22;9.00;99.90
19862;DHT22;10093;48.148;8.542;2023-05-19T04:51:48;9.10;99.90
19862;DHT22;10093;48.148;8.542;2023-05-19T04:54:15;9.10;99.90
19862;DHT22;10093;48.148;8.542;2023-05-19T04:56:41;9.10;99.90
19862;DHT22;10093;48.148;8.542;2023-05-19T04:59:08;9.30;99.90
19862;DHT22;10093;48.148;8.542;2023-05-19T05:01:34;9.50;99.90
19862;DHT22;10093;48.148;8.542;2023-05-19T05:04:05;9.70;99.90
19862;DHT22;10093;48.148;8.542;2023-05-19T05:06:31;9.80;99.90
19862;DHT22;10093;48.148;8.542;2023-05-19T05:08:56;9.80;99.90
19862;DHT22;10093;48.148;8.542;2023-05-19T05:11:22;10.00;99.90
19862;DHT22;10093;48.148;8.542;2023-05-19T05:13:48;10.20;99.90
19862;DHT22;10093;48.148;8.542;2023-05-19T05:16:14;9.80;99.90
19862;DHT22;10093;48.148;8.542;2023-05-19T05:18:40;9.70;99.90
19862;DHT22;10093;48.148;8.542;2023-05-19T05:21:06;9.90;99.90
19862;DHT22;10093;48.148;8.542;2023-05-19T05:23:32;9.90;99.90
19862;DHT22;10093;48.148;8.542;2023-05-19T05:25:58;10.20;99.90
19862;DHT22;10093;48.148;8.542;2023-05-19T05:28:24;10.50;99.90
19862;DHT22;10093;48.148;8.542;2023-05-19T05:30:50;10.80;99.90
19862;DHT22;10093;48.148;8.542;2023-05-19T05:33:16;11.00;99.90
19862;DHT22;10093;48.148;8.542;2023-05-19T05:35:42;11.30;99.90
19862;DHT22;10093;48.148;8.542;2023-05-19T05:38:08;11.60;99.90
19862;DHT22;10093;48.148;8.542;2023-05-19T05:40:35;11.80;99.90
19862;DHT22;10093;48.148;8.542;2023-05-19T05:43:01;11.70;99.90
19862;DHT22;10093;48.148;8.542;2023-05-19T05:45:27;11.70;99.90
19862;DHT22;10093;48.148;8.542;2023-05-19T05:47:53;12.10;99.90
19862;DHT22;10093;48.148;8.542;2023-05-19T05:50:19;12.20;99.90
19862;DHT22;10093;48.148;8.542;2023-05-19T05:52:46;12.60;99.90
19862;DHT22;10093;48.148;8.542;2023-05-19T05:55:12;13.00;99.90
19862;DHT22;10093;48.148;8.542;2023-05-19T05:57:38;13.00;99.90
19862;DHT22;10093;48.148;8.542;2023-05-19T06:00:07;13.40;99.90
19862;DHT22;10093;48.148;8.542;2023-05-19T06:02:44;12.70;99.90
19862;DHT22;10093;48.148;8.542;2023-05-19T06:05:13;11.80;99.90
19862;DHT22;10093;48.148;8.542;2023-05-19T06:07:40;11.60;99.90
19862;DHT22;10093;48.148;8.542;2023-05-19T06:10:07;11.80;99.90
19862;DHT22;10093;48.148;8.542;2023-05-19T06:12:33;12.30;99.90
19862;DHT22;10093;48.148;8.542;2023-05-19T06:15:00;11.70;99.90
19862;DHT22;10093;48.148;8.542;2023-05-19T06:17:26;12.00;99.90
19862;DHT22;10093;48.148;8.542;2023-05-19T06:19:52;12.60;99.90
19862;DHT22;10093;48.148;8.542;2023-05-19T06:22:17;13.00;99.90
19862;DHT22;10093;48.148;8.542;2023-05-19T06:24:43;13.30;99.90
19862;DHT22;10093;48.148;8.542;2023-05-19T06:27:09;12.60;99.90
19862;DHT22;10093;48.148;8.542;2023-05-19T06:29:34;12.00;99.90
19862;DHT22;10093;48.148;8.542;2023-05-19T06:32:00;12.20;99.90
19862;DHT22;10093;48.148;8.542;2023-05-19T06:34:26;12.40;99.90
19862;DHT22;10093;48.148;8.542;2023-05-19T06:36:51;12.90;99.90
19862;DHT22;10093;48.148;8.542;2023-05-19T06:39:17;13.40;99.90
19862;DHT22;10093;48.148;8.542;2023-05-19T06:41:43;14.20;99.90
19862;DHT22;10093;48.148;8.542;2023-05-19T06:44:08;14.30;99.90
19862;DHT22;10093;48.148;8.542;2023-05-19T06:46:34;14.30;99.90
19862;DHT22;10093;48.148;8.542;2023-05-19T06:49:00;13.60;99.90
19862;DHT22;10093;48.148;8.542;2023-05-19T06:51:26;13.30;99.90
19862;DHT22;10093;48.148;8.542;2023-05-19T06:53:51;13.10;99.90
19862;DHT22;10093;48.148;8.542;2023-05-19T06:56:17;13.90;99.90
19862;DHT22;10093;48.148;8.542;2023-05-19T06:58:44;14.60;99.90
19862;DHT22;10093;48.148;8.542;2023-05-19T07:01:10;14.10;99.90
19862;DHT22;10093;48.148;8.542;2023-05-19T07:03:36;14.30;99.90
19862;DHT22;10093;48.148;8.542;2023-05-19T07:06:02;13.70;99.90
19862;DHT22;10093;48.148;8.542;2023-05-19T07:08:27;13.70;99.90
19862;DHT22;10093;48.148;8.542;2023-05-19T07:10:53;13.00;99.90
19862;DHT22;10093;48.148;8.542;2023-05-19T07:13:20;13.20;99.90
19862;DHT22;10093;48.148;8.542;2023-05-19T07:15:46;13.50;99.90
19862;DHT22;10093;48.148;8.542;2023-05-19T07:18:13;14.10;99.90
19862;DHT22;10093;48.148;8.542;2023-05-19T07:20:39;14.00;99.90
19862;DHT22;10093;48.148;8.542;2023-05-19T07:23:05;13.80;99.90
19862;DHT22;10093;48.148;8.542;2023-05-19T07:25:30;13.30;99.90
19862;DHT22;10093;48.148;8.542;2023-05-19T07:27:57;13.20;99.90
19862;DHT22;10093;48.148;8.542;2023-05-19T07:30:23;12.20;99.90
19862;DHT22;10093;48.148;8.542;2023-05-19T07:32:48;12.10;99.90
19862;DHT22;10093;48.148;8.542;2023-05-19T07:35:14;12.20;99.90
19862;DHT22;10093;48.148;8.542;2023-05-19T07:37:40;12.50;99.90
19862;DHT22;10093;48.148;8.542;2023-05-19T07:40:06;12.30;99.90
19862;DHT22;10093;48.148;8.542;2023-05-19T07:42:32;12.40;99.90
19862;DHT22;10093;48.148;8.542;2023-05-19T07:44:58;12.90;99.90
19862;DHT22;10093;48.148;8.542;2023-05-19T07:47:24;12.60;99.90
19862;DHT22;10093;48.148;8.542;2023-05-19T07:49:50;13.20;99.90
19862;DHT22;10093;48.148;8.542;2023-05-19T07:52:15;13.50;99.90
19862;DHT22;10093;48.148;8.542;2023-05-19T07:54:43;14.20;99.90
19862;DHT22;10093;48.148;8.542;2023-05-19T07:57:08;15.10;99.90
19862;DHT22;10093;48.148;8.542;2023-05-19T07:59:34;14.80;99.90
19862;DHT22;10093;48.148;8.542;2023-05-19T08:02:00;15.10;99.90
19862;DHT22;10093;48.148;8.542;2023-05-19T08:04:25;13.50;99.90
19862;DHT22;10093;48.148;8.542;2023-05-19T08:06:52;14.10;99.90
19862;DHT22;10093;48.148;8.542;2023-05-19T08:09:18;14.70;99.90
19862;DHT22;10093;48.148;8.542;2023-05-19T08:11:44;15.00;99.90
19862;DHT22;10093;48.148;8.542;2023-05-19T08:14:11;15.50;99.90
19862;DHT22;10093;48.148;8.542;2023-05-19T08:16:37;15.70;99.90
19862;DHT22;10093;48.148;8.542;2023-05-19T08:19:02;15.40;99.90
19862;DHT22;10093;48.148;8.542;2023-05-19T08:21:30;15.90;99.90
19862;DHT22;10093;48.148;8.542;2023-05-19T08:23:59;16.80;99.90
19862;DHT22;10093;48.148;8.542;2023-05-19T08:26:26;17.80;99.90
19862;DHT22;10093;48.148;8.542;2023-05-19T08:28:52;17.80;99.90
19862;DHT22;10093;48.148;8.542;2023-05-19T08:31:17;18.30;99.90
19862;DHT22;10093;48.148;8.542;2023-05-19T08:33:43;16.80;99.90
19862;DHT22;10093;48.148;8.542;2023-05-19T08:36:09;16.70;99.90
19862;DHT22;10093;48.148;8.542;2023-05-19T08:38:35;15.30;99.90
19862;DHT22;10093;48.148;8.542;2023-05-19T08:41:00;15.40;99.90
19862;DHT22;10093;48.148;8.542;2023-05-19T08:43:26;15.40;99.90
19862;DHT22;10093;48.148;8.542;2023-05-19T08:45:52;15.70;99.90
19862;DHT22;10093;48.148;8.542;2023-05-19T08:48:21;15.00;99.90
19862;DHT22;10093;48.148;8.542;2023-05-19T08:53:39;15.20;99.90
19862;DHT22;10093;48.148;8.542;2023-05-19T08:56:14;15.80;99.90
19862;DHT22;10093;48.148;8.542;2023-05-19T08:58:41;15.00;99.90
19862;DHT22;10093;48.148;8.542;2023-05-19T09:01:09;14.10;99.90
19862;DHT22;10093;48.148;8.542;2023-05-19T09:03:38;14.10;99.90
19862;DHT22;10093;48.148;8.542;2023-05-19T09:06:06;14.20;99.90
19862;DHT22;10093;48.148;8.542;2023-05-19T09:08:34;14.60;99.90
19862;DHT22;10093;48.148;8.542;2023-05-19T09:11:01;15.10;99.90
19862;DHT22;10093;48.148;8.542;2023-05-19T09:13:27;15.40;99.90
19862;DHT22;10093;48.148;8.542;2023-05-19T09:15:52;15.00;99.90
19862;DHT22;10093;48.148;8.542;2023-05-19T09:18:20;15.30;99.90
19862;DHT22;10093;48.148;8.542;2023-05-19T09:20:46;14.20;99.90
19862;DHT22;10093;48.148;8.542;2023-05-19T09:23:16;13.60;99.90
19862;DHT22;10093;48.148;8.542;2023-05-19T09:25:49;14.30;99.90
19862;DHT22;10093;48.148;8.542;2023-05-19T09:28:25;14.90;99.90
19862;DHT22;10093;48.148;8.542;2023-05-19T09:31:17;14.30;99.90
19862;DHT22;10093;48.148;8.542;2023-05-19T09:33:43;14.00;99.90
19862;DHT22;10093;48.148;8.542;2023-05-19T09:36:10;14.20;99.90
19862;DHT22;10093;48.148;8.542;2023-05-19T09:38:37;14.10;99.90
19862;DHT22;10093;48.148;8.542;2023-05-19T09:41:05;14.00;99.90
19862;DHT22;10093;48.148;8.542;2023-05-19T09:43:32;13.70;99.90
19862;DHT22;10093;48.148;8.542;2023-05-19T09:46:06;14.00;99.90
19862;DHT22;10093;48.148;8.542;2023-05-19T09:48:35;14.90;99.90
19862;DHT22;10093;48.148;8.542;2023-05-19T09:51:02;14.90;99.90
19862;DHT22;10093;48.148;8.542;2023-05-19T09:53:29;14.70;99.90
19862;DHT22;10093;48.148;8.542;2023-05-19T09:56:00;14.60;99.90
19862;DHT22;10093;48.148;8.542;2023-05-19T09:58:30;15.10;99.90
19862;DHT22;10093;48.148;8.542;2023-05-19T10:00:57;15.10;99.90
19862;DHT22;10093;48.148;8.542;2023-05-19T10:03:22;15.10;99.90
19862;DHT22;10093;48.148;8.542;2023-05-19T10:05:49;14.40;99.90
19862;DHT22;10093;48.148;8.542;2023-05-19T10:08:16;13.60;99.90
19862;DHT22;10093;48.148;8.542;2023-05-19T10:10:44;13.50;99.90
19862;DHT22;10093;48.148;8.542;2023-05-19T10:13:11;13.10;99.90
19862;DHT22;10093;48.148;8.542;2023-05-19T10:15:37;13.30;99.90
19862;DHT22;10093;48.148;8.542;2023-05-19T10:18:10;13.90;99.90
19862;DHT22;10093;48.148;8.542;2023-05-19T10:20:36;14.10;99.90
19862;DHT22;10093;48.148;8.542;2023-05-19T10:23:02;13.30;99.90
19862;DHT22;10093;48.148;8.542;2023-05-19T10:25:30;13.30;99.90
19862;DHT22;10093;48.148;8.542;2023-05-19T10:28:10;13.10;99.90
19862;DHT22;10093;48.148;8.542;2023-05-19T10:30:40;13.00;99.90
19862;DHT22;10093;48.148;8.542;2023-05-19T10:33:11;12.70;99.90
19862;DHT22;10093;48.148;8.542;2023-05-19T10:38:31;13.10;99.90
19862;DHT22;10093;48.148;8.542;2023-05-19T10:46:41;14.70;99.90
19862;DHT22;10093;48.148;8.542;2023-05-19T10:49:07;14.60;99.90
19862;DHT22;10093;48.148;8.542;2023-05-19T10:51:33;15.50;99.90
19862;DHT22;10093;48.148;8.542;2023-05-19T10:54:07;15.30;99.90
19862;DHT22;10093;48.148;8.542;2023-05-19T10:56:39;15.30;99.90
19862;DHT22;10093;48.148;8.542;2023-05-19T10:59:07;15.90;99.90
19862;DHT22;10093;48.148;8.542;2023-05-19T11:01:52;16.10;99.90
19862;DHT22;10093;48.148;8.542;2023-05-19T11:04:18;15.80;99.90
19862;DHT22;10093;48.148;8.542;2023-05-19T11:07:02;14.20;99.90
19862;DHT22;10093;48.148;8.542;2023-05-19T11:09:28;15.00;99.90
19862;DHT22;10093;48.148;8.542;2023-05-19T11:12:01;14.50;99.90
19862;DHT22;10093;48.148;8.542;2023-05-19T11:14:28;14.20;99.90
19862;DHT22;10093;48.148;8.542;2023-05-19T11:16:56;14.90;99.90
19862;DHT22;10093;48.148;8.542;2023-05-19T11:19:30;15.00;99.90
19862;DHT22;10093;48.148;8.542;2023-05-19T11:22:06;14.90;99.90
19862;DHT22;10093;48.148;8.542;2023-05-19T11:24:54;16.20;99.90
19862;DHT22;10093;48.148;8.542;2023-05-19T11:27:34;16.60;99.90
19862;DHT22;10093;48.148;8.542;2023-05-19T11:32:32;15.40;99.90
19862;DHT22;10093;48.148;8.542;2023-05-19T11:34:58;14.80;99.90
19862;DHT22;10093;48.148;8.542;2023-05-19T11:37:25;14.50;99.90
19862;DHT22;10093;48.148;8.542;2023-05-19T11:39:53;14.60;99.90
19862;DHT22;10093;48.148;8.542;2023-05-19T11:42:19;14.40;99.90
19862;DHT22;10093;48.148;8.542;2023-05-19T11:44:45;14.00;99.90
19862;DHT22;10093;48.148;8.542;2023-05-19T11:47:12;13.90;99.90
19862;DHT22;10093;48.148;8.542;2023-05-19T11:49:41;14.10;99.90
19862;DHT22;10093;48.148;8.542;2023-05-19T11:52:07;14.00;99.90
19862;DHT22;10093;48.148;8.542;2023-05-19T11:54:33;13.80;99.90
19862;DHT22;10093;48.148;8.542;2023-05-19T11:57:02;14.20;99.90
19862;DHT22;10093;48.148;8.542;2023-05-19T11:59:34;14.70;99.90
19862;DHT22;10093;48.148;8.542;2023-05-19T12:02:01;14.80;99.90
19862;DHT22;10093;48.148;8.542;2023-05-19T12:04:30;15.10;99.90
19862;DHT22;10093;48.148;8.542;2023-05-19T12:06:56;15.20;99.90
19862;DHT22;10093;48.148;8.542;2023-05-19T12:09:22;14.50;99.90
19862;DHT22;10093;48.148;8.542;2023-05-19T12:11:51;14.50;99.90
19862;DHT22;10093;48.148;8.542;2023-05-19T12:14:17;14.20;99.90
19862;DHT22;10093;48.148;8.542;2023-05-19T12:16:43;13.90;99.90
19862;DHT22;10093;48.148;8.542;2023-05-19T12:19:08;13.90;99.90
19862;DHT22;10093;48.148;8.542;2023-05-19T12:21:34;14.80;99.90
19862;DHT22;10093;48.148;8.542;2023-05-19T12:24:01;14.50;99.90
19862;DHT22;10093;48.148;8.542;2023-05-19T12:26:27;14.30;99.90
19862;DHT22;10093;48.148;8.542;2023-05-19T12:28:53;14.20;99.90
19862;DHT22;10093;48.148;8.542;2023-05-19T12:31:20;14.00;99.90
19862;DHT22;10093;48.148;8.542;2023-05-19T12:33:48;15.00;99.90
19862;DHT22;10093;48.148;8.542;2023-05-19T12:36:17;15.60;99.90
19862;DHT22;10093;48.148;8.542;2023-05-19T12:38:43;15.40;99.90
19862;DHT22;10093;48.148;8.542;2023-05-19T12:41:11;14.50;99.90
19862;DHT22;10093;48.148;8.542;2023-05-19T12:43:37;14.50;99.90
19862;DHT22;10093;48.148;8.542;2023-05-19T12:46:12;14.90;99.90
19862;DHT22;10093;48.148;8.542;2023-05-19T12:48:45;14.60;99.90
19862;DHT22;10093;48.148;8.542;2023-05-19T12:51:20;14.10;99.90
19862;DHT22;10093;48.148;8.542;2023-05-19T12:53:45;13.70;99.90
19862;DHT22;10093;48.148;8.542;2023-05-19T12:56:14;13.60;99.90
19862;DHT22;10093;48.148;8.542;2023-05-19T12:58:41;13.70;99.90
19862;DHT22;10093;48.148;8.542;2023-05-19T13:01:15;13.80;99.90
19862;DHT22;10093;48.148;8.542;2023-05-19T13:03:41;13.30;99.90
19862;DHT22;10093;48.148;8.542;2023-05-19T13:06:07;13.70;99.90
19862;DHT22;10093;48.148;8.542;2023-05-19T13:08:33;14.10;99.90
19862;DHT22;10093;48.148;8.542;2023-05-19T13:10:59;14.30;99.90
19862;DHT22;10093;48.148;8.542;2023-05-19T13:13:26;14.40;99.90
19862;DHT22;10093;48.148;8.542;2023-05-19T13:15:51;14.00;99.90
19862;DHT22;10093;48.148;8.542;2023-05-19T13:18:18;13.80;99.90
19862;DHT22;10093;48.148;8.542;2023-05-19T13:20:44;13.70;99.90
19862;DHT22;10093;48.148;8.542;2023-05-19T13:23:12;13.40;99.90
19862;DHT22;10093;48.148;8.542;2023-05-19T13:25:38;13.60;99.90
19862;DHT22;10093;48.148;8.542;2023-05-19T13:28:03;13.80;99.90
19862;DHT22;10093;48.148;8.542;2023-05-19T13:30:34;13.40;99.90
19862;DHT22;10093;48.148;8.542;2023-05-19T13:33:01;13.80;99.90
19862;DHT22;10093;48.148;8.542;2023-05-19T13:35:26;13.50;99.90
19862;DHT22;10093;48.148;8.542;2023-05-19T13:37:52;13.30;99.90
19862;DHT22;10093;48.148;8.542;2023-05-19T13:40:18;12.70;99.90
19862;DHT22;10093;48.148;8.542;2023-05-19T13:42:44;13.20;99.90
19862;DHT22;10093;48.148;8.542;2023-05-19T13:45:10;13.20;99.90
19862;DHT22;10093;48.148;8.542;2023-05-19T13:47:36;13.10;99.90
19862;DHT22;10093;48.148;8.542;2023-05-19T13:50:03;13.10;99.90
19862;DHT22;10093;48.148;8.542;2023-05-19T13:52:29;13.20;99.90
19862;DHT22;10093;48.148;8.542;2023-05-19T13:54:55;12.60;99.90
19862;DHT22;10093;48.148;8.542;2023-05-19T13:57:24;12.80;99.90
19862;DHT22;10093;48.148;8.542;2023-05-19T13:59:51;13.00;99.90
19862;DHT22;10093;48.148;8.542;2023-05-19T14:02:17;12.80;99.90
19862;DHT22;10093;48.148;8.542;2023-05-19T14:04:43;13.20;99.90
19862;DHT22;10093;48.148;8.542;2023-05-19T14:07:09;12.60;99.90
19862;DHT22;10093;48.148;8.542;2023-05-19T14:09:35;12.40;99.90
19862;DHT22;10093;48.148;8.542;2023-05-19T14:12:01;12.80;99.90
19862;DHT22;10093;48.148;8.542;2023-05-19T14:14:27;12.70;99.90
19862;DHT22;10093;48.148;8.542;2023-05-19T14:16:53;13.00;99.90
19862;DHT22;10093;48.148;8.542;2023-05-19T14:19:18;13.00;99.90
19862;DHT22;10093;48.148;8.542;2023-05-19T14:21:44;12.90;99.90
19862;DHT22;10093;48.148;8.542;2023-05-19T14:24:10;13.20;99.90
19862;DHT22;10093;48.148;8.542;2023-05-19T14:26:35;13.60;99.90
19862;DHT22;10093;48.148;8.542;2023-05-19T14:29:02;13.90;99.90
19862;DHT22;10093;48.148;8.542;2023-05-19T14:31:27;14.40;99.90
19862;DHT22;10093;48.148;8.542;2023-05-19T14:33:53;14.90;99.90
19862;DHT22;10093;48.148;8.542;2023-05-19T14:36:19;13.90;99.90
19862;DHT22;10093;48.148;8.542;2023-05-19T14:38:45;13.50;99.90
19862;DHT22;10093;48.148;8.542;2023-05-19T14:41:10;13.40;99.90
19862;DHT22;10093;48.148;8.542;2023-05-19T14:43:36;13.60;99.90
19862;DHT22;10093;48.148;8.542;2023-05-19T14:46:02;13.40;99.90
19862;DHT22;10093;48.148;8.542;2023-05-19T14:48:27;13.40;99.90
19862;DHT22;10093;48.148;8.542;2023-05-19T14:50:53;13.30;99.90
19862;DHT22;10093;48.148;8.542;2023-05-19T14:53:19;12.80;99.90
19862;DHT22;10093;48.148;8.542;2023-05-19T14:55:46;12.80;99.90
19862;DHT22;10093;48.148;8.542;2023-05-19T14:58:14;12.80;99.90
19862;DHT22;10093;48.148;8.542;2023-05-19T15:00:41;13.20;99.90
19862;DHT22;10093;48.148;8.542;2023-05-19T15:03:07;13.60;99.90
19862;DHT22;10093;48.148;8.542;2023-05-19T15:05:32;13.10;99.90
19862;DHT22;10093;48.148;8.542;2023-05-19T15:07:58;13.30;99.90
19862;DHT22;10093;48.148;8.542;2023-05-19T15:10:23;13.50;99.90
19862;DHT22;10093;48.148;8.542;2023-05-19T15:12:49;13.50;99.90
19862;DHT22;10093;48.148;8.542;2023-05-19T15:15:15;13.20;99.90
19862;DHT22;10093;48.148;8.542;2023-05-19T15:17:41;13.00;99.90
19862;DHT22;10093;48.148;8.542;2023-05-19T15:20:08;13.30;99.90
19862;DHT22;10093;48.148;8.542;2023-05-19T15:22:33;13.80;99.90
19862;DHT22;10093;48.148;8.542;2023-05-19T15:24:59;13.70;99.90
19862;DHT22;10093;48.148;8.542;2023-05-19T15:27:25;13.40;99.90
19862;DHT22;10093;48.148;8.542;2023-05-19T15:29:51;13.00;99.90
19862;DHT22;10093;48.148;8.542;2023-05-19T15:32:17;12.80;99.90
19862;DHT22;10093;48.148;8.542;2023-05-19T15:34:43;12.70;99.90
19862;DHT22;10093;48.148;8.542;2023-05-19T15:37:08;13.20;99.90
19862;DHT22;10093;48.148;8.542;2023-05-19T15:39:34;13.10;99.90
19862;DHT22;10093;48.148;8.542;2023-05-19T15:41:59;13.30;99.90
19862;DHT22;10093;48.148;8.542;2023-05-19T15:44:25;13.40;99.90
19862;DHT22;10093;48.148;8.542;2023-05-19T15:46:51;13.80;99.90
19862;DHT22;10093;48.148;8.542;2023-05-19T15:49:16;13.70;99.90
19862;DHT22;10093;48.148;8.542;2023-05-19T15:51:43;12.90;99.90
19862;DHT22;10093;48.148;8.542;2023-05-19T15:54:09;12.30;99.90
19862;DHT22;10093;48.148;8.542;2023-05-19T15:56:35;12.30;99.90
19862;DHT22;10093;48.148;8.542;2023-05-19T15:59:00;12.30;99.90
19862;DHT22;10093;48.148;8.542;2023-05-19T16:01:26;12.40;99.90